createdAt,value
2022-07-25T00:00:11.406Z,6.68
2022-07-25T00:02:39.497Z,6.50
2022-07-25T00:05:08.480Z,6.53
2022-07-25T00:07:36.756Z,6.55
2022-07-25T00:10:05.417Z,6.40
2022-07-25T00:12:33.482Z,6.10
2022-07-25T00:15:01.621Z,6.75
2022-07-25T00:17:31.069Z,6.95
2022-07-25T00:19:59.153Z,6.68
2022-07-25T00:22:27.190Z,6.68
2022-07-25T00:24:55.202Z,6.38
2022-07-25T00:27:23.380Z,6.53
2022-07-25T00:29:51.567Z,7.00
2022-07-25T00:32:19.710Z,6.30
2022-07-25T00:34:49.065Z,6.65
2022-07-25T00:37:17.119Z,6.75
2022-07-25T00:39:45.169Z,6.40
2022-07-25T00:42:13.239Z,6.50
2022-07-25T00:44:41.238Z,6.60
2022-07-25T00:47:09.302Z,6.25
2022-07-25T00:49:37.280Z,7.13
2022-07-25T00:52:07.204Z,7.00
2022-07-25T00:54:35.443Z,7.57
2022-07-25T00:57:05.447Z,6.70
2022-07-25T00:59:33.502Z,6.95
2022-07-25T01:02:03.817Z,6.80
2022-07-25T01:04:32.283Z,7.35
2022-07-25T01:07:01.026Z,6.70
2022-07-25T01:09:30.657Z,7.63
2022-07-25T01:11:58.696Z,7.00
2022-07-25T01:14:26.698Z,7.30
2022-07-25T01:16:54.722Z,7.80
2022-07-25T01:19:23.113Z,7.55
2022-07-25T01:21:52.606Z,7.93
2022-07-25T01:24:20.697Z,7.07
2022-07-25T01:26:48.694Z,7.72
2022-07-25T01:29:16.662Z,7.47
2022-07-25T01:31:44.656Z,8.25
2022-07-25T01:34:12.675Z,7.63
2022-07-25T01:36:40.669Z,7.45
2022-07-25T01:39:10.165Z,7.45
2022-07-25T01:41:38.364Z,8.05
2022-07-25T01:44:06.891Z,8.27
2022-07-25T01:46:35.317Z,7.65
2022-07-25T01:49:03.531Z,7.60
2022-07-25T01:51:31.726Z,7.55
2022-07-25T01:53:59.831Z,7.43
2022-07-25T01:56:29.257Z,7.70
2022-07-25T01:59:00.061Z,7.45
2022-07-25T02:01:28.350Z,7.88
2022-07-25T02:03:56.414Z,7.72
2022-07-25T02:06:24.404Z,8.38
2022-07-25T02:08:54.120Z,8.15
2022-07-25T02:11:22.266Z,8.07
2022-07-25T02:13:51.613Z,8.15
2022-07-25T02:16:19.717Z,7.80
2022-07-25T02:18:57.302Z,8.55
2022-07-25T02:21:25.959Z,7.80
2022-07-25T02:23:54.208Z,8.55
2022-07-25T02:26:22.274Z,8.05
2022-07-25T02:28:52.076Z,8.20
2022-07-25T02:31:20.220Z,8.38
2022-07-25T02:33:48.317Z,8.68
2022-07-25T02:36:16.407Z,8.38
2022-07-25T02:38:44.425Z,8.57
2022-07-25T02:41:12.473Z,9.40
2022-07-25T02:43:40.469Z,9.55
2022-07-25T02:46:09.926Z,9.02
2022-07-25T02:48:38.029Z,8.05
2022-07-25T02:51:06.241Z,8.68
2022-07-25T02:53:56.013Z,10.23
2022-07-25T02:56:22.289Z,11.07
2022-07-25T02:58:51.677Z,12.15
2022-07-25T03:01:21.080Z,12.40
2022-07-25T03:03:49.155Z,13.60
2022-07-25T03:06:17.408Z,13.32
2022-07-25T03:08:45.389Z,13.18
2022-07-25T03:11:13.892Z,12.13
2022-07-25T03:13:41.937Z,12.57
2022-07-25T03:16:10.498Z,13.40
2022-07-25T03:18:40.035Z,11.20
2022-07-25T03:21:08.565Z,10.20
2022-07-25T03:23:36.533Z,10.00
2022-07-25T03:26:04.774Z,10.00
2022-07-25T03:28:32.803Z,10.35
2022-07-25T03:31:00.790Z,9.95
2022-07-25T03:33:28.914Z,10.27
2022-07-25T03:35:58.249Z,10.25
2022-07-25T03:38:26.231Z,10.55
2022-07-25T03:40:54.243Z,10.93
2022-07-25T03:43:22.379Z,10.13
2022-07-25T03:45:50.365Z,11.57
2022-07-25T03:48:18.378Z,10.48
2022-07-25T03:50:46.343Z,11.30
2022-07-25T03:53:16.574Z,10.55
2022-07-25T03:55:44.781Z,10.52
2022-07-25T03:58:12.801Z,10.95
2022-07-25T04:00:40.821Z,11.27
2022-07-25T04:03:10.392Z,11.05
2022-07-25T04:05:38.413Z,11.05
2022-07-25T04:08:07.020Z,11.98
2022-07-25T04:10:36.409Z,10.88
2022-07-25T04:13:04.527Z,11.35
2022-07-25T04:15:32.487Z,10.40
2022-07-25T04:18:01.770Z,10.55
2022-07-25T04:20:30.898Z,10.95
2022-07-25T04:22:58.907Z,10.32
2022-07-25T04:25:26.904Z,11.05
2022-07-25T04:27:56.248Z,10.48
2022-07-25T04:30:25.021Z,11.65
2022-07-25T04:32:53.301Z,10.80
2022-07-25T04:35:21.523Z,11.10
2022-07-25T04:37:50.237Z,10.88
2022-07-25T04:40:18.191Z,10.57
2022-07-25T04:42:46.186Z,10.13
2022-07-25T04:45:17.566Z,11.32
2022-07-25T04:47:46.150Z,10.13
2022-07-25T04:50:14.470Z,10.52
2022-07-25T04:52:42.574Z,9.98
2022-07-25T04:55:10.949Z,9.70
2022-07-25T04:57:39.865Z,9.85
2022-07-25T05:00:10.778Z,9.82
2022-07-25T05:02:40.334Z,9.45
2022-07-25T05:05:20.799Z,9.15
2022-07-25T05:07:49.345Z,10.50
2022-07-25T05:10:17.426Z,9.88
2022-07-25T05:12:45.488Z,9.85
2022-07-25T05:15:14.200Z,9.77
2022-07-25T05:17:43.753Z,9.35
2022-07-25T05:20:13.073Z,10.50
2022-07-25T05:22:41.593Z,9.82
2022-07-25T05:25:11.440Z,9.95
2022-07-25T05:27:39.635Z,9.13
2022-07-25T05:30:09.370Z,9.45
2022-07-25T05:32:37.445Z,8.63
2022-07-25T05:35:08.860Z,8.95
2022-07-25T05:37:37.347Z,9.52
2022-07-25T05:40:06.458Z,9.23
2022-07-25T05:42:34.581Z,8.93
2022-07-25T05:45:02.935Z,9.77
2022-07-25T05:47:30.967Z,9.73
2022-07-25T05:49:59.209Z,9.25
2022-07-25T05:52:28.593Z,8.88
2022-07-25T05:54:56.592Z,9.57
2022-07-25T05:57:24.694Z,9.68
2022-07-25T05:59:52.689Z,9.27
2022-07-25T06:02:20.862Z,10.63
2022-07-25T06:04:48.969Z,10.15
2022-07-25T06:07:17.338Z,8.98
2022-07-25T06:09:46.758Z,8.98
2022-07-25T06:12:15.070Z,9.10
2022-07-25T06:14:43.708Z,9.00
2022-07-25T06:17:11.813Z,9.27
2022-07-25T06:19:39.869Z,8.90
2022-07-25T06:22:09.339Z,9.23
2022-07-25T06:24:37.387Z,9.75
2022-07-25T06:27:08.424Z,9.10
2022-07-25T06:29:36.410Z,9.18
2022-07-25T06:32:04.763Z,9.23
2022-07-25T06:34:32.811Z,9.80
2022-07-25T06:37:00.837Z,10.10
2022-07-25T06:39:29.120Z,9.80
2022-07-25T06:41:59.610Z,8.80
2022-07-25T06:44:29.052Z,8.25
2022-07-25T06:46:57.086Z,8.63
2022-07-25T06:49:25.141Z,9.63
2022-07-25T06:51:53.183Z,9.43
2022-07-25T06:54:21.254Z,9.18
2022-07-25T06:56:49.259Z,9.45
2022-07-25T06:59:17.299Z,8.77
2022-07-25T07:01:51.269Z,8.90
2022-07-25T07:04:19.806Z,9.43
2022-07-25T07:06:47.776Z,8.68
2022-07-25T07:09:15.847Z,9.25
2022-07-25T07:11:43.845Z,8.63
2022-07-25T07:14:11.907Z,8.40
2022-07-25T07:16:41.397Z,8.90
2022-07-25T07:19:12.071Z,9.00
2022-07-25T07:21:40.168Z,9.10
2022-07-25T07:24:22.707Z,9.05
2022-07-25T07:26:52.970Z,8.93
2022-07-25T07:29:21.034Z,9.52
2022-07-25T07:31:49.144Z,9.55
2022-07-25T07:34:18.797Z,8.90
2022-07-25T07:36:46.821Z,9.55
2022-07-25T07:39:16.553Z,9.68
2022-07-25T07:41:44.715Z,9.27
2022-07-25T07:44:12.744Z,9.27
2022-07-25T07:46:40.911Z,9.88
2022-07-25T07:49:09.517Z,9.25
2022-07-25T07:51:39.319Z,9.02
2022-07-25T07:54:24.962Z,8.93
2022-07-25T07:56:53.019Z,9.00
2022-07-25T07:59:21.965Z,9.30
2022-07-25T08:01:50.020Z,9.15
2022-07-25T08:04:18.035Z,9.05
2022-07-25T08:06:47.515Z,9.50
2022-07-25T08:09:15.561Z,9.50
2022-07-25T08:11:43.612Z,9.20
2022-07-25T08:14:11.676Z,9.25
2022-07-25T08:16:39.720Z,9.30
2022-07-25T08:19:07.776Z,9.02
2022-07-25T08:21:35.787Z,9.75
2022-07-25T08:24:06.201Z,8.98
2022-07-25T08:26:37.121Z,9.13
2022-07-25T08:29:18.805Z,9.40
2022-07-25T08:31:48.131Z,8.13
2022-07-25T08:34:16.251Z,9.10
2022-07-25T08:36:44.292Z,9.18
2022-07-25T08:39:15.801Z,8.60
2022-07-25T08:41:44.080Z,8.90
2022-07-25T08:44:15.068Z,8.85
2022-07-25T08:46:44.311Z,8.77
2022-07-25T08:49:12.835Z,8.93
2022-07-25T08:51:41.846Z,8.43
2022-07-25T08:54:11.372Z,8.98
2022-07-25T08:56:40.814Z,8.52
2022-07-25T08:59:10.138Z,8.70
2022-07-25T09:01:40.654Z,8.75
2022-07-25T09:04:10.162Z,8.32
2022-07-25T09:06:38.670Z,8.02
2022-07-25T09:09:08.539Z,8.57
2022-07-25T09:11:38.662Z,8.50
2022-07-25T09:14:10.636Z,8.52
2022-07-25T09:16:40.991Z,8.30
2022-07-25T09:19:11.708Z,7.65
2022-07-25T09:21:41.838Z,8.20
2022-07-25T09:24:12.598Z,8.67
2022-07-25T09:26:49.119Z,8.35
2022-07-25T09:29:20.068Z,8.00
2022-07-25T09:31:48.339Z,8.30
2022-07-25T09:34:21.875Z,8.43
2022-07-25T09:36:55.049Z,8.75
2022-07-25T09:39:33.341Z,8.35
2022-07-25T09:42:01.868Z,8.43
2022-07-25T09:44:31.298Z,8.02
2022-07-25T09:46:59.806Z,8.23
2022-07-25T09:49:38.109Z,8.15
2022-07-25T09:52:07.248Z,7.63
2022-07-25T09:54:36.180Z,7.93
2022-07-25T09:57:04.396Z,8.05
2022-07-25T09:59:34.389Z,7.80
2022-07-25T10:02:07.884Z,8.52
2022-07-25T10:04:56.234Z,7.70
2022-07-25T10:07:29.512Z,8.27
2022-07-25T10:10:00.526Z,7.53
2022-07-25T10:12:28.724Z,8.27
2022-07-25T10:15:10.268Z,7.90
2022-07-25T10:17:40.177Z,8.15
2022-07-25T10:20:10.433Z,8.55
2022-07-25T10:22:58.538Z,8.18
2022-07-25T10:25:27.434Z,8.52
2022-07-25T10:28:01.000Z,7.78
2022-07-25T10:30:36.154Z,8.50
2022-07-25T10:33:06.490Z,7.93
2022-07-25T10:35:34.546Z,7.60
2022-07-25T10:38:05.834Z,8.07
2022-07-25T10:40:36.682Z,7.47
2022-07-25T10:43:09.853Z,7.97
2022-07-25T10:45:51.700Z,7.68
2022-07-25T10:48:23.850Z,7.93
2022-07-25T10:50:56.309Z,7.88
2022-07-25T10:53:35.674Z,7.10
2022-07-25T10:56:11.128Z,6.70
2022-07-25T10:58:53.289Z,7.40
2022-07-25T11:01:24.698Z,7.00
2022-07-25T11:03:53.908Z,7.07
2022-07-25T11:06:32.459Z,6.93
2022-07-25T11:09:01.398Z,7.60
2022-07-25T11:11:37.278Z,6.43
2022-07-25T11:14:06.702Z,6.00
2022-07-25T11:16:36.156Z,5.50
2022-07-25T11:19:04.599Z,5.80
2022-07-25T11:21:32.847Z,5.70
2022-07-25T11:24:00.829Z,5.60
2022-07-25T11:26:28.842Z,4.38
2022-07-25T11:28:56.837Z,3.67
2022-07-25T11:31:24.873Z,3.40
2022-07-25T11:33:54.414Z,3.45
2022-07-25T11:36:22.497Z,3.47
2022-07-25T11:38:51.314Z,3.17
2022-07-25T11:41:29.945Z,2.85
2022-07-25T11:43:58.338Z,2.60
2022-07-25T11:46:26.763Z,2.63
2022-07-25T11:49:08.453Z,2.70
2022-07-25T11:51:38.666Z,3.10
2022-07-25T11:54:11.685Z,3.10
2022-07-25T11:56:45.639Z,2.90
2022-07-25T11:59:13.891Z,3.35
2022-07-25T12:01:43.885Z,3.15
2022-07-25T12:04:15.722Z,3.08
2022-07-25T12:06:44.492Z,3.55
2022-07-25T12:09:19.072Z,3.25
2022-07-25T12:11:48.712Z,3.30
2022-07-25T12:14:16.954Z,3.55
2022-07-25T12:16:45.155Z,3.40
2022-07-25T12:19:21.822Z,3.50
2022-07-25T12:21:49.989Z,3.50
2022-07-25T12:24:17.968Z,3.40
2022-07-25T12:26:46.013Z,4.50
2022-07-25T12:29:14.008Z,5.03
2022-07-25T12:31:42.043Z,5.47
2022-07-25T12:34:10.004Z,5.47
2022-07-25T12:36:43.963Z,6.03
2022-07-25T12:39:12.203Z,4.88
2022-07-25T12:41:42.400Z,5.57
2022-07-25T12:44:10.824Z,5.22
2022-07-25T12:46:40.306Z,4.80
2022-07-25T12:49:08.715Z,3.92
2022-07-25T12:51:37.060Z,4.43
2022-07-25T12:54:07.077Z,4.05
2022-07-25T12:56:35.850Z,4.70
2022-07-25T12:59:04.052Z,4.60
2022-07-25T13:01:32.284Z,4.20
2022-07-25T13:04:00.328Z,4.50
2022-07-25T13:06:28.370Z,4.30
2022-07-25T13:08:56.361Z,4.30
2022-07-25T13:11:25.706Z,4.53
2022-07-25T13:13:53.865Z,4.50
2022-07-25T13:16:23.089Z,4.80
2022-07-25T13:18:51.171Z,4.30
2022-07-25T13:21:20.890Z,4.38
2022-07-25T13:23:48.980Z,4.50
2022-07-25T13:26:17.013Z,4.55
2022-07-25T13:28:46.359Z,4.90
2022-07-25T13:31:14.443Z,4.70
2022-07-25T13:33:42.461Z,4.53
2022-07-25T13:36:10.919Z,4.53
2022-07-25T13:38:41.378Z,4.45
2022-07-25T13:41:09.395Z,4.53
2022-07-25T13:43:37.585Z,4.40
2022-07-25T13:46:07.341Z,4.75
2022-07-25T13:48:36.121Z,4.78
2022-07-25T13:51:04.734Z,4.47
2022-07-25T13:53:32.851Z,4.90
2022-07-25T13:56:01.587Z,4.85
2022-07-25T13:58:29.738Z,4.78
2022-07-25T14:00:57.845Z,4.45
2022-07-25T14:03:27.200Z,4.55
2022-07-25T14:05:55.322Z,5.00
2022-07-25T14:08:23.383Z,4.85
2022-07-25T14:10:51.361Z,4.75
2022-07-25T14:13:19.362Z,4.90
2022-07-25T14:15:47.471Z,5.15
2022-07-25T14:18:16.100Z,5.25
2022-07-25T14:20:46.502Z,4.85
2022-07-25T14:23:14.620Z,4.95
2022-07-25T14:25:42.604Z,5.32
2022-07-25T14:28:10.713Z,5.25
2022-07-25T14:30:39.701Z,4.47
2022-07-25T14:33:07.665Z,4.80
2022-07-25T14:35:36.247Z,4.68
2022-07-25T14:38:06.743Z,4.78
2022-07-25T14:40:34.864Z,4.63
2022-07-25T14:43:03.217Z,4.63
2022-07-25T14:45:31.308Z,4.22
2022-07-25T14:47:59.403Z,4.43
2022-07-25T14:50:28.332Z,4.28
2022-07-25T14:52:56.391Z,4.03
2022-07-25T14:55:25.801Z,4.38
2022-07-25T14:57:53.967Z,3.88
2022-07-25T15:00:23.810Z,3.67
2022-07-25T15:02:55.640Z,4.30
2022-07-25T15:05:23.652Z,4.15
2022-07-25T15:07:51.750Z,4.90
2022-07-25T15:10:19.773Z,4.90
2022-07-25T15:12:54.335Z,5.00
2022-07-25T15:15:30.325Z,4.50
2022-07-25T15:17:59.147Z,4.85
2022-07-25T15:20:27.115Z,4.80
2022-07-25T15:22:55.305Z,4.97
2022-07-25T15:25:59.472Z,5.10
2022-07-25T15:28:12.684Z,4.88
2022-07-25T15:30:41.939Z,5.10
2022-07-25T15:33:10.145Z,5.22
2022-07-25T15:35:38.126Z,5.45
2022-07-25T15:38:06.115Z,5.45
2022-07-25T15:40:34.212Z,5.63
2022-07-25T15:43:02.182Z,5.82
2022-07-25T15:45:33.456Z,6.20
2022-07-25T15:48:03.658Z,5.60
2022-07-25T15:50:33.527Z,5.25
2022-07-25T15:53:01.718Z,5.55
2022-07-25T15:55:29.735Z,6.00
2022-07-25T15:57:57.913Z,5.55
2022-07-25T16:00:29.649Z,5.60
2022-07-25T16:02:59.527Z,5.90
2022-07-25T16:05:27.911Z,5.60
2022-07-25T16:07:55.904Z,5.72
2022-07-25T16:10:24.018Z,5.38
2022-07-25T16:12:51.995Z,5.63
2022-07-25T16:15:20.209Z,5.28
2022-07-25T16:17:48.883Z,5.28
2022-07-25T16:20:18.286Z,4.70
2022-07-25T16:22:46.906Z,4.53
2022-07-25T16:25:14.906Z,4.20
2022-07-25T16:27:42.970Z,4.65
2022-07-25T16:30:11.890Z,4.50
2022-07-25T16:32:39.869Z,4.20
2022-07-25T16:35:08.391Z,4.00
2022-07-25T16:37:37.830Z,4.32
2022-07-25T16:40:08.135Z,4.20
2022-07-25T16:42:36.429Z,4.05
2022-07-25T16:45:05.561Z,4.55
2022-07-25T16:47:33.520Z,4.53
2022-07-25T16:50:01.790Z,4.88
2022-07-25T16:52:29.760Z,4.68
2022-07-25T16:54:59.427Z,5.03
2022-07-25T16:57:27.454Z,4.55
2022-07-25T16:59:55.483Z,5.15
2022-07-25T17:02:29.223Z,4.97
2022-07-25T17:04:57.957Z,4.93
2022-07-25T17:07:26.499Z,4.78
2022-07-25T17:09:54.806Z,4.93
2022-07-25T17:12:24.296Z,4.70
2022-07-25T17:14:52.302Z,5.15
2022-07-25T17:17:20.297Z,5.50
2022-07-25T17:19:48.306Z,5.18
2022-07-25T17:22:16.604Z,5.45
2022-07-25T17:24:44.794Z,5.18
2022-07-25T17:27:12.899Z,5.50
2022-07-25T17:29:42.565Z,5.88
2022-07-25T17:32:10.570Z,5.40
2022-07-25T17:34:38.598Z,5.47
2022-07-25T17:37:07.221Z,5.95
2022-07-25T17:39:35.824Z,6.10
2022-07-25T17:42:07.163Z,5.78
2022-07-25T17:44:35.691Z,5.88
2022-07-25T17:47:05.078Z,6.30
2022-07-25T17:49:33.130Z,6.07
2022-07-25T17:52:01.098Z,6.00
2022-07-25T17:54:29.089Z,6.10
2022-07-25T17:56:57.114Z,6.30
2022-07-25T17:59:25.233Z,6.05
2022-07-25T18:01:53.280Z,6.40
2022-07-25T18:04:23.214Z,6.25
2022-07-25T18:06:51.316Z,6.10
2022-07-25T18:09:20.311Z,6.35
2022-07-25T18:11:48.587Z,6.50
2022-07-25T18:14:16.622Z,6.40
2022-07-25T18:16:45.506Z,6.53
2022-07-25T18:19:13.761Z,6.30
2022-07-25T18:21:43.559Z,6.85
2022-07-25T18:24:11.876Z,6.22
2022-07-25T18:26:40.769Z,6.78
2022-07-25T18:29:09.605Z,6.30
2022-07-25T18:31:37.801Z,6.30
2022-07-25T18:34:06.192Z,6.45
2022-07-25T18:36:35.279Z,6.43
2022-07-25T18:39:04.911Z,6.97
2022-07-25T18:41:34.124Z,6.45
2022-07-25T18:44:02.530Z,6.88
2022-07-25T18:46:32.793Z,6.55
2022-07-25T18:49:02.129Z,5.95
2022-07-25T18:51:30.182Z,6.72
2022-07-25T18:53:58.196Z,6.80
2022-07-25T18:56:27.603Z,6.63
2022-07-25T18:58:55.588Z,6.88
2022-07-25T19:01:23.677Z,7.03
2022-07-25T19:03:51.726Z,6.60
2022-07-25T19:06:19.735Z,7.32
2022-07-25T19:08:47.940Z,7.38
2022-07-25T19:11:15.981Z,7.47
2022-07-25T19:13:50.381Z,7.22
2022-07-25T19:16:19.489Z,7.57
2022-07-25T19:18:47.949Z,7.22
2022-07-25T19:21:16.730Z,7.13
2022-07-25T19:23:50.468Z,7.05
2022-07-25T19:26:19.365Z,7.05
2022-07-25T19:28:48.866Z,6.95
2022-07-25T19:31:17.077Z,6.82
2022-07-25T19:33:46.327Z,6.78
2022-07-25T19:36:14.612Z,6.25
2022-07-25T19:38:42.735Z,6.75
2022-07-25T19:41:10.747Z,6.47
2022-07-25T19:43:38.748Z,6.68
2022-07-25T19:46:08.186Z,6.40
2022-07-25T19:48:36.354Z,6.10
2022-07-25T19:51:04.685Z,6.85
2022-07-25T19:53:33.026Z,6.60
2022-07-25T19:56:01.283Z,6.40
2022-07-25T19:58:29.300Z,6.07
2022-07-25T20:00:57.288Z,6.97
2022-07-25T20:03:26.657Z,6.43
2022-07-25T20:05:54.673Z,6.65
2022-07-25T20:08:22.713Z,6.70
2022-07-25T20:10:50.802Z,6.65
2022-07-25T20:13:18.775Z,7.28
2022-07-25T20:15:46.975Z,5.80
2022-07-25T20:18:19.308Z,5.60
2022-07-25T20:20:49.168Z,5.32
2022-07-25T20:23:17.365Z,5.10
2022-07-25T20:25:45.435Z,5.50
2022-07-25T20:28:13.551Z,5.28
2022-07-25T20:30:41.825Z,5.00
2022-07-25T20:33:10.287Z,4.85
2022-07-25T20:35:38.880Z,5.22
2022-07-25T20:38:09.480Z,4.68
2022-07-25T20:40:42.893Z,4.95
2022-07-25T20:43:14.689Z,4.53
2022-07-25T20:45:42.773Z,4.90
2022-07-25T20:48:10.812Z,4.78
2022-07-25T20:50:39.346Z,4.50
2022-07-25T20:53:09.748Z,4.45
2022-07-25T20:55:38.463Z,4.00
2022-07-25T20:58:06.527Z,4.63
2022-07-25T21:00:34.613Z,4.55
2022-07-25T21:03:02.818Z,4.18
2022-07-25T21:05:30.945Z,4.15
2022-07-25T21:07:58.969Z,3.67
2022-07-25T21:10:28.416Z,4.00
2022-07-25T21:12:56.882Z,4.25
2022-07-25T21:15:25.268Z,3.70
2022-07-25T21:17:53.311Z,4.10
2022-07-25T21:20:21.324Z,3.28
2022-07-25T21:22:49.706Z,3.53
2022-07-25T21:25:17.744Z,3.33
2022-07-25T21:27:47.108Z,2.92
2022-07-25T21:30:15.400Z,3.13
2022-07-25T21:32:44.347Z,2.83
2022-07-25T21:35:12.869Z,3.25
2022-07-25T21:37:40.883Z,2.78
2022-07-25T21:40:10.402Z,2.60
2022-07-25T21:42:38.667Z,2.80
2022-07-25T21:45:09.447Z,2.60
2022-07-25T21:47:37.436Z,2.90
2022-07-25T21:50:24.865Z,2.40
2022-07-25T21:52:53.441Z,2.30
2022-07-25T21:55:22.389Z,2.47
2022-07-25T21:57:51.243Z,2.53
2022-07-25T22:00:22.380Z,2.83
2022-07-25T22:02:50.647Z,2.28
2022-07-25T22:05:19.672Z,2.25
2022-07-25T22:07:48.524Z,2.30
2022-07-25T22:10:18.129Z,2.13
2022-07-25T22:12:46.357Z,2.20
2022-07-25T22:15:15.407Z,2.28
2022-07-25T22:17:49.520Z,2.55
2022-07-25T22:20:18.514Z,2.05
2022-07-25T22:22:46.937Z,2.20
2022-07-25T22:25:15.426Z,1.92
2022-07-25T22:27:43.439Z,2.35
2022-07-25T22:30:18.465Z,2.00
2022-07-25T22:32:48.673Z,1.88
2022-07-25T22:35:16.764Z,2.10
2022-07-25T22:37:45.035Z,2.25
2022-07-25T22:40:14.608Z,2.15
2022-07-25T22:42:42.645Z,1.95
2022-07-25T22:45:11.421Z,1.92
2022-07-25T22:47:39.578Z,1.55
2022-07-25T22:50:10.748Z,2.00
2022-07-25T22:52:38.766Z,1.77
2022-07-25T22:55:07.439Z,1.67
2022-07-25T22:57:36.843Z,1.80
2022-07-25T23:00:07.726Z,1.88
2022-07-25T23:02:35.850Z,1.75
2022-07-25T23:05:03.930Z,1.50
2022-07-25T23:07:33.331Z,1.80
2022-07-25T23:10:01.704Z,1.60
2022-07-25T23:12:29.698Z,1.50
2022-07-25T23:14:57.751Z,1.35
2022-07-25T23:17:25.790Z,1.50
2022-07-25T23:19:55.599Z,1.50
2022-07-25T23:22:27.835Z,1.55
2022-07-25T23:24:59.449Z,1.50
2022-07-25T23:27:28.378Z,1.50
2022-07-25T23:30:01.185Z,1.60
2022-07-25T23:32:29.170Z,1.40
2022-07-25T23:34:57.177Z,1.30
2022-07-25T23:37:25.205Z,1.50
2022-07-25T23:39:53.235Z,1.23
2022-07-25T23:42:22.573Z,1.35
2022-07-25T23:44:50.648Z,1.45
2022-07-25T23:47:25.377Z,1.60
2022-07-25T23:49:56.509Z,1.30
2022-07-25T23:52:24.531Z,1.20
2022-07-25T23:54:52.542Z,1.40
2022-07-25T23:57:22.527Z,1.30
2022-07-25T23:59:50.502Z,1.50
